Terminal Aerodrome Forecast
Issued by NWS

Home | Current Version | Previous Version | Text Only | Print | Product List | Glossary On
Versions: 1 2 3 4 5 6 7 8 9 10 11 12 13 14 15 16
148
FTUS45 KTFX 131735
TAFHLN
TAF
KHLN 131735Z 1318/1418 28020G32KT P6SM SCT150
     FM140000 26008KT P6SM SCT060 BKN090=

USA.gov is the U.S. government's official web portal to all federal, state and local government web resources and services.